sensor_id;sensor_type;location;lat;lon;timestamp;P1;durP1;ratioP1;P2;durP2;ratioP2
74551;SDS011;63025;55.472;38.432;2023-05-10T00:00:39;17.42;;;9.65;;
74551;SDS011;63025;55.472;38.432;2023-05-10T00:03:05;16.00;;;9.43;;
74551;SDS011;63025;55.472;38.432;2023-05-10T00:05:31;17.33;;;9.63;;
74551;SDS011;63025;55.472;38.432;2023-05-10T00:07:58;16.80;;;10.20;;
74551;SDS011;63025;55.472;38.432;2023-05-10T00:10:23;15.23;;;9.23;;
74551;SDS011;63025;55.472;38.432;2023-05-10T00:12:49;18.13;;;9.65;;
74551;SDS011;63025;55.472;38.432;2023-05-10T00:15:15;19.00;;;10.00;;
74551;SDS011;63025;55.472;38.432;2023-05-10T00:17:41;18.42;;;9.20;;
74551;SDS011;63025;55.472;38.432;2023-05-10T00:20:07;16.60;;;9.57;;
74551;SDS011;63025;55.472;38.432;2023-05-10T00:22:34;16.63;;;9.63;;
74551;SDS011;63025;55.472;38.432;2023-05-10T00:25:00;15.02;;;8.32;;
74551;SDS011;63025;55.472;38.432;2023-05-10T00:27:26;16.55;;;9.57;;
74551;SDS011;63025;55.472;38.432;2023-05-10T00:29:52;14.32;;;8.90;;
74551;SDS011;63025;55.472;38.432;2023-05-10T00:32:18;17.50;;;9.75;;
74551;SDS011;63025;55.472;38.432;2023-05-10T00:34:44;14.32;;;8.60;;
74551;SDS011;63025;55.472;38.432;2023-05-10T00:37:11;18.60;;;9.40;;
74551;SDS011;63025;55.472;38.432;2023-05-10T00:39:37;16.15;;;9.80;;
74551;SDS011;63025;55.472;38.432;2023-05-10T00:42:03;14.07;;;9.13;;
74551;SDS011;63025;55.472;38.432;2023-05-10T00:44:30;16.25;;;9.57;;
74551;SDS011;63025;55.472;38.432;2023-05-10T00:46:56;14.82;;;9.40;;
74551;SDS011;63025;55.472;38.432;2023-05-10T00:49:23;16.95;;;8.85;;
74551;SDS011;63025;55.472;38.432;2023-05-10T00:51:49;15.98;;;9.77;;
74551;SDS011;63025;55.472;38.432;2023-05-10T00:54:15;19.77;;;9.73;;
74551;SDS011;63025;55.472;38.432;2023-05-10T00:56:41;13.65;;;9.30;;
74551;SDS011;63025;55.472;38.432;2023-05-10T00:59:14;18.83;;;11.40;;
74551;SDS011;63025;55.472;38.432;2023-05-10T01:01:44;16.02;;;9.23;;
74551;SDS011;63025;55.472;38.432;2023-05-10T01:04:11;14.32;;;8.52;;
74551;SDS011;63025;55.472;38.432;2023-05-10T01:06:39;16.00;;;9.18;;
74551;SDS011;63025;55.472;38.432;2023-05-10T01:09:06;13.80;;;9.23;;
74551;SDS011;63025;55.472;38.432;2023-05-10T01:11:33;15.43;;;9.90;;
74551;SDS011;63025;55.472;38.432;2023-05-10T01:14:03;16.75;;;9.70;;
74551;SDS011;63025;55.472;38.432;2023-05-10T01:16:34;15.43;;;10.05;;
74551;SDS011;63025;55.472;38.432;2023-05-10T01:19:04;18.90;;;10.52;;
74551;SDS011;63025;55.472;38.432;2023-05-10T01:21:45;18.73;;;10.10;;
74551;SDS011;63025;55.472;38.432;2023-05-10T01:38:21;29.35;;;13.00;;
74551;SDS011;63025;55.472;38.432;2023-05-10T01:41:07;35.70;;;15.90;;
74551;SDS011;63025;55.472;38.432;2023-05-10T01:43:57;22.42;;;12.02;;
74551;SDS011;63025;55.472;38.432;2023-05-10T01:46:35;21.20;;;10.77;;
74551;SDS011;63025;55.472;38.432;2023-05-10T01:49:03;20.90;;;10.13;;
74551;SDS011;63025;55.472;38.432;2023-05-10T01:51:59;16.63;;;9.93;;
74551;SDS011;63025;55.472;38.432;2023-05-10T01:54:31;29.67;;;14.77;;
74551;SDS011;63025;55.472;38.432;2023-05-10T01:57:00;90.65;;;37.45;;
74551;SDS011;63025;55.472;38.432;2023-05-10T01:59:31;90.28;;;36.97;;
74551;SDS011;63025;55.472;38.432;2023-05-10T02:02:06;24.58;;;12.88;;
74551;SDS011;63025;55.472;38.432;2023-05-10T02:04:37;27.98;;;12.65;;
74551;SDS011;63025;55.472;38.432;2023-05-10T02:07:05;35.10;;;17.27;;
74551;SDS011;63025;55.472;38.432;2023-05-10T02:09:33;67.32;;;33.53;;
74551;SDS011;63025;55.472;38.432;2023-05-10T02:12:01;70.38;;;32.53;;
74551;SDS011;63025;55.472;38.432;2023-05-10T02:14:30;45.67;;;19.92;;
74551;SDS011;63025;55.472;38.432;2023-05-10T02:17:00;20.90;;;11.13;;
74551;SDS011;63025;55.472;38.432;2023-05-10T02:19:28;20.50;;;11.75;;
74551;SDS011;63025;55.472;38.432;2023-05-10T02:22:15;16.98;;;9.52;;
74551;SDS011;63025;55.472;38.432;2023-05-10T02:24:42;20.85;;;11.68;;
74551;SDS011;63025;55.472;38.432;2023-05-10T02:27:10;21.90;;;12.93;;
74551;SDS011;63025;55.472;38.432;2023-05-10T02:29:40;47.72;;;26.55;;
74551;SDS011;63025;55.472;38.432;2023-05-10T02:32:07;28.80;;;14.88;;
74551;SDS011;63025;55.472;38.432;2023-05-10T02:34:36;29.27;;;16.17;;
74551;SDS011;63025;55.472;38.432;2023-05-10T02:37:02;26.30;;;14.82;;
74551;SDS011;63025;55.472;38.432;2023-05-10T02:39:28;50.85;;;24.92;;
74551;SDS011;63025;55.472;38.432;2023-05-10T02:41:56;36.15;;;19.27;;
74551;SDS011;63025;55.472;38.432;2023-05-10T02:44:23;35.97;;;19.98;;
74551;SDS011;63025;55.472;38.432;2023-05-10T02:46:52;45.63;;;25.48;;
74551;SDS011;63025;55.472;38.432;2023-05-10T02:49:21;32.72;;;18.17;;
74551;SDS011;63025;55.472;38.432;2023-05-10T02:51:48;31.98;;;19.00;;
74551;SDS011;63025;55.472;38.432;2023-05-10T02:54:24;25.48;;;13.35;;
74551;SDS011;63025;55.472;38.432;2023-05-10T02:56:58;22.90;;;11.93;;
74551;SDS011;63025;55.472;38.432;2023-05-10T02:59:28;22.08;;;12.02;;
74551;SDS011;63025;55.472;38.432;2023-05-10T03:01:54;19.58;;;11.63;;
74551;SDS011;63025;55.472;38.432;2023-05-10T03:04:20;21.67;;;13.27;;
74551;SDS011;63025;55.472;38.432;2023-05-10T03:06:46;23.67;;;12.73;;
74551;SDS011;63025;55.472;38.432;2023-05-10T03:09:13;37.22;;;19.55;;
74551;SDS011;63025;55.472;38.432;2023-05-10T03:12:00;36.85;;;18.08;;
74551;SDS011;63025;55.472;38.432;2023-05-10T03:17:56;39.28;;;19.25;;
74551;SDS011;63025;55.472;38.432;2023-05-10T03:21:10;27.00;;;14.02;;
74551;SDS011;63025;55.472;38.432;2023-05-10T03:23:22;26.20;;;14.77;;
74551;SDS011;63025;55.472;38.432;2023-05-10T03:26:00;23.13;;;14.77;;
74551;SDS011;63025;55.472;38.432;2023-05-10T03:28:28;21.58;;;12.93;;
74551;SDS011;63025;55.472;38.432;2023-05-10T03:30:57;17.67;;;11.95;;
74551;SDS011;63025;55.472;38.432;2023-05-10T03:33:25;19.20;;;11.57;;
74551;SDS011;63025;55.472;38.432;2023-05-10T03:35:52;20.48;;;12.68;;
74551;SDS011;63025;55.472;38.432;2023-05-10T03:38:18;47.13;;;20.70;;
74551;SDS011;63025;55.472;38.432;2023-05-10T03:40:45;19.98;;;12.20;;
74551;SDS011;63025;55.472;38.432;2023-05-10T03:43:11;22.08;;;12.90;;
74551;SDS011;63025;55.472;38.432;2023-05-10T03:45:37;20.25;;;11.85;;
74551;SDS011;63025;55.472;38.432;2023-05-10T03:48:03;19.08;;;12.43;;
74551;SDS011;63025;55.472;38.432;2023-05-10T03:50:30;20.27;;;13.30;;
74551;SDS011;63025;55.472;38.432;2023-05-10T03:52:56;19.58;;;12.88;;
74551;SDS011;63025;55.472;38.432;2023-05-10T03:55:22;21.13;;;13.63;;
74551;SDS011;63025;55.472;38.432;2023-05-10T03:57:49;22.52;;;14.10;;
74551;SDS011;63025;55.472;38.432;2023-05-10T04:00:16;22.45;;;13.13;;
74551;SDS011;63025;55.472;38.432;2023-05-10T04:02:42;21.30;;;12.82;;
74551;SDS011;63025;55.472;38.432;2023-05-10T04:05:11;20.52;;;13.05;;
74551;SDS011;63025;55.472;38.432;2023-05-10T04:07:37;23.00;;;12.98;;
74551;SDS011;63025;55.472;38.432;2023-05-10T04:10:04;24.35;;;14.30;;
74551;SDS011;63025;55.472;38.432;2023-05-10T04:12:31;23.55;;;14.23;;
74551;SDS011;63025;55.472;38.432;2023-05-10T04:14:57;25.70;;;14.90;;
74551;SDS011;63025;55.472;38.432;2023-05-10T04:17:23;22.90;;;13.23;;
74551;SDS011;63025;55.472;38.432;2023-05-10T04:19:49;20.23;;;11.88;;
74551;SDS011;63025;55.472;38.432;2023-05-10T04:22:18;20.00;;;12.10;;
74551;SDS011;63025;55.472;38.432;2023-05-10T04:24:44;17.08;;;10.90;;
74551;SDS011;63025;55.472;38.432;2023-05-10T04:27:10;27.17;;;11.88;;
74551;SDS011;63025;55.472;38.432;2023-05-10T04:29:36;19.50;;;11.60;;
74551;SDS011;63025;55.472;38.432;2023-05-10T04:32:03;22.60;;;11.55;;
74551;SDS011;63025;55.472;38.432;2023-05-10T04:34:30;24.63;;;12.30;;
74551;SDS011;63025;55.472;38.432;2023-05-10T04:36:55;20.17;;;11.63;;
74551;SDS011;63025;55.472;38.432;2023-05-10T04:39:21;22.10;;;11.60;;
74551;SDS011;63025;55.472;38.432;2023-05-10T04:41:47;22.45;;;11.88;;
74551;SDS011;63025;55.472;38.432;2023-05-10T04:44:13;20.23;;;11.73;;
74551;SDS011;63025;55.472;38.432;2023-05-10T04:46:39;21.95;;;11.68;;
74551;SDS011;63025;55.472;38.432;2023-05-10T04:49:05;26.42;;;12.50;;
74551;SDS011;63025;55.472;38.432;2023-05-10T04:51:31;22.63;;;11.77;;
74551;SDS011;63025;55.472;38.432;2023-05-10T04:53:57;21.00;;;12.00;;
74551;SDS011;63025;55.472;38.432;2023-05-10T04:56:23;22.27;;;11.80;;
74551;SDS011;63025;55.472;38.432;2023-05-10T04:58:50;22.55;;;11.73;;
74551;SDS011;63025;55.472;38.432;2023-05-10T05:01:16;25.50;;;11.85;;
74551;SDS011;63025;55.472;38.432;2023-05-10T05:03:42;24.02;;;11.48;;
74551;SDS011;63025;55.472;38.432;2023-05-10T05:06:08;19.17;;;11.50;;
74551;SDS011;63025;55.472;38.432;2023-05-10T05:08:34;20.80;;;11.98;;
74551;SDS011;63025;55.472;38.432;2023-05-10T05:11:00;32.35;;;19.52;;
74551;SDS011;63025;55.472;38.432;2023-05-10T05:13:26;22.83;;;13.43;;
74551;SDS011;63025;55.472;38.432;2023-05-10T05:15:52;21.02;;;11.75;;
74551;SDS011;63025;55.472;38.432;2023-05-10T05:18:18;25.13;;;11.68;;
74551;SDS011;63025;55.472;38.432;2023-05-10T05:20:45;23.23;;;11.20;;
74551;SDS011;63025;55.472;38.432;2023-05-10T05:23:10;26.27;;;11.10;;
74551;SDS011;63025;55.472;38.432;2023-05-10T05:25:36;25.15;;;11.95;;
74551;SDS011;63025;55.472;38.432;2023-05-10T05:28:02;23.15;;;11.68;;
74551;SDS011;63025;55.472;38.432;2023-05-10T05:30:28;23.88;;;13.05;;
74551;SDS011;63025;55.472;38.432;2023-05-10T05:32:54;25.05;;;11.57;;
74551;SDS011;63025;55.472;38.432;2023-05-10T05:35:20;23.27;;;11.68;;
74551;SDS011;63025;55.472;38.432;2023-05-10T05:37:46;24.75;;;11.27;;
74551;SDS011;63025;55.472;38.432;2023-05-10T05:40:13;19.52;;;10.65;;
74551;SDS011;63025;55.472;38.432;2023-05-10T05:42:39;24.42;;;10.18;;
74551;SDS011;63025;55.472;38.432;2023-05-10T05:45:05;17.80;;;10.30;;
74551;SDS011;63025;55.472;38.432;2023-05-10T05:47:33;20.83;;;11.35;;
74551;SDS011;63025;55.472;38.432;2023-05-10T05:49:59;21.63;;;11.10;;
74551;SDS011;63025;55.472;38.432;2023-05-10T05:52:25;21.73;;;11.48;;
74551;SDS011;63025;55.472;38.432;2023-05-10T05:54:51;19.42;;;10.38;;
74551;SDS011;63025;55.472;38.432;2023-05-10T05:57:17;20.08;;;11.77;;
74551;SDS011;63025;55.472;38.432;2023-05-10T05:59:43;21.23;;;11.35;;
74551;SDS011;63025;55.472;38.432;2023-05-10T06:02:10;25.08;;;10.38;;
74551;SDS011;63025;55.472;38.432;2023-05-10T06:04:36;14.93;;;10.00;;
74551;SDS011;63025;55.472;38.432;2023-05-10T06:07:02;22.90;;;9.30;;
74551;SDS011;63025;55.472;38.432;2023-05-10T06:09:28;15.30;;;8.43;;
74551;SDS011;63025;55.472;38.432;2023-05-10T06:11:54;15.82;;;7.72;;
74551;SDS011;63025;55.472;38.432;2023-05-10T06:14:21;28.55;;;20.20;;
74551;SDS011;63025;55.472;38.432;2023-05-10T06:16:47;14.35;;;7.93;;
74551;SDS011;63025;55.472;38.432;2023-05-10T06:19:13;13.48;;;7.60;;
74551;SDS011;63025;55.472;38.432;2023-05-10T06:21:38;13.20;;;7.00;;
74551;SDS011;63025;55.472;38.432;2023-05-10T06:24:05;11.88;;;6.68;;
74551;SDS011;63025;55.472;38.432;2023-05-10T06:26:32;13.18;;;6.75;;
74551;SDS011;63025;55.472;38.432;2023-05-10T06:28:59;14.80;;;7.57;;
74551;SDS011;63025;55.472;38.432;2023-05-10T06:31:25;13.57;;;7.53;;
74551;SDS011;63025;55.472;38.432;2023-05-10T06:33:51;14.88;;;6.78;;
74551;SDS011;63025;55.472;38.432;2023-05-10T06:36:17;12.10;;;6.88;;
74551;SDS011;63025;55.472;38.432;2023-05-10T06:38:43;11.60;;;7.30;;
74551;SDS011;63025;55.472;38.432;2023-05-10T06:41:09;14.40;;;6.88;;
74551;SDS011;63025;55.472;38.432;2023-05-10T06:43:35;11.82;;;6.75;;
74551;SDS011;63025;55.472;38.432;2023-05-10T06:46:05;11.85;;;7.20;;
74551;SDS011;63025;55.472;38.432;2023-05-10T06:48:32;15.02;;;6.20;;
74551;SDS011;63025;55.472;38.432;2023-05-10T06:50:58;13.52;;;7.22;;
74551;SDS011;63025;55.472;38.432;2023-05-10T06:53:24;13.75;;;6.85;;
74551;SDS011;63025;55.472;38.432;2023-05-10T06:55:50;13.55;;;6.95;;
74551;SDS011;63025;55.472;38.432;2023-05-10T06:58:17;14.60;;;6.72;;
74551;SDS011;63025;55.472;38.432;2023-05-10T07:00:43;12.40;;;6.85;;
74551;SDS011;63025;55.472;38.432;2023-05-10T07:03:11;13.70;;;6.40;;
74551;SDS011;63025;55.472;38.432;2023-05-10T07:05:37;16.63;;;6.85;;
74551;SDS011;63025;55.472;38.432;2023-05-10T07:08:03;9.80;;;5.55;;
74551;SDS011;63025;55.472;38.432;2023-05-10T07:10:30;9.35;;;4.50;;
74551;SDS011;63025;55.472;38.432;2023-05-10T07:12:56;9.50;;;4.90;;
74551;SDS011;63025;55.472;38.432;2023-05-10T07:15:22;9.05;;;4.78;;
74551;SDS011;63025;55.472;38.432;2023-05-10T07:17:48;11.80;;;5.45;;
74551;SDS011;63025;55.472;38.432;2023-05-10T07:20:14;9.10;;;4.50;;
74551;SDS011;63025;55.472;38.432;2023-05-10T07:22:40;8.73;;;4.07;;
74551;SDS011;63025;55.472;38.432;2023-05-10T07:25:07;134.95;;;69.00;;
74551;SDS011;63025;55.472;38.432;2023-05-10T07:27:33;9.82;;;4.55;;
74551;SDS011;63025;55.472;38.432;2023-05-10T07:29:59;7.05;;;3.67;;
74551;SDS011;63025;55.472;38.432;2023-05-10T07:32:26;7.35;;;3.50;;
74551;SDS011;63025;55.472;38.432;2023-05-10T07:34:52;7.82;;;3.80;;
74551;SDS011;63025;55.472;38.432;2023-05-10T07:37:18;5.82;;;2.70;;
74551;SDS011;63025;55.472;38.432;2023-05-10T07:39:44;6.93;;;3.15;;
74551;SDS011;63025;55.472;38.432;2023-05-10T07:42:10;4.97;;;2.70;;
74551;SDS011;63025;55.472;38.432;2023-05-10T07:44:36;4.93;;;2.80;;
74551;SDS011;63025;55.472;38.432;2023-05-10T07:47:02;6.43;;;3.22;;
74551;SDS011;63025;55.472;38.432;2023-05-10T07:49:28;7.28;;;3.25;;
74551;SDS011;63025;55.472;38.432;2023-05-10T07:51:54;18.33;;;4.10;;
74551;SDS011;63025;55.472;38.432;2023-05-10T07:54:20;11.18;;;3.28;;
74551;SDS011;63025;55.472;38.432;2023-05-10T07:56:46;7.47;;;3.03;;
74551;SDS011;63025;55.472;38.432;2023-05-10T07:59:16;8.45;;;3.13;;
74551;SDS011;63025;55.472;38.432;2023-05-10T08:01:43;4.32;;;2.50;;
74551;SDS011;63025;55.472;38.432;2023-05-10T08:04:10;6.65;;;3.20;;
74551;SDS011;63025;55.472;38.432;2023-05-10T08:06:37;5.70;;;2.88;;
74551;SDS011;63025;55.472;38.432;2023-05-10T08:09:04;5.35;;;3.15;;
74551;SDS011;63025;55.472;38.432;2023-05-10T08:11:30;7.40;;;3.40;;
74551;SDS011;63025;55.472;38.432;2023-05-10T08:13:56;7.55;;;3.30;;
74551;SDS011;63025;55.472;38.432;2023-05-10T08:16:22;5.90;;;3.65;;
74551;SDS011;63025;55.472;38.432;2023-05-10T08:18:48;6.35;;;3.28;;
74551;SDS011;63025;55.472;38.432;2023-05-10T08:21:16;7.90;;;3.70;;
74551;SDS011;63025;55.472;38.432;2023-05-10T08:23:43;6.63;;;3.30;;
74551;SDS011;63025;55.472;38.432;2023-05-10T08:26:09;7.10;;;3.55;;
74551;SDS011;63025;55.472;38.432;2023-05-10T08:28:35;6.13;;;3.80;;
74551;SDS011;63025;55.472;38.432;2023-05-10T08:31:01;6.28;;;3.30;;
74551;SDS011;63025;55.472;38.432;2023-05-10T08:33:28;5.88;;;2.70;;
74551;SDS011;63025;55.472;38.432;2023-05-10T08:35:54;7.15;;;2.78;;
74551;SDS011;63025;55.472;38.432;2023-05-10T08:38:20;4.55;;;2.50;;
74551;SDS011;63025;55.472;38.432;2023-05-10T08:40:46;4.70;;;2.70;;
74551;SDS011;63025;55.472;38.432;2023-05-10T08:43:16;5.60;;;2.80;;
74551;SDS011;63025;55.472;38.432;2023-05-10T08:45:43;6.53;;;2.90;;
74551;SDS011;63025;55.472;38.432;2023-05-10T08:48:13;4.20;;;2.47;;
74551;SDS011;63025;55.472;38.432;2023-05-10T08:50:40;6.70;;;2.60;;
74551;SDS011;63025;55.472;38.432;2023-05-10T08:53:09;3.88;;;2.17;;
74551;SDS011;63025;55.472;38.432;2023-05-10T08:55:36;5.18;;;2.50;;
74551;SDS011;63025;55.472;38.432;2023-05-10T08:58:04;7.05;;;2.53;;
74551;SDS011;63025;55.472;38.432;2023-05-10T09:00:31;4.30;;;2.38;;
74551;SDS011;63025;55.472;38.432;2023-05-10T09:02:58;5.18;;;2.65;;
74551;SDS011;63025;55.472;38.432;2023-05-10T09:05:25;4.95;;;2.55;;
74551;SDS011;63025;55.472;38.432;2023-05-10T09:07:52;6.00;;;2.38;;
74551;SDS011;63025;55.472;38.432;2023-05-10T09:10:18;6.90;;;2.50;;
74551;SDS011;63025;55.472;38.432;2023-05-10T09:12:45;5.43;;;2.30;;
74551;SDS011;63025;55.472;38.432;2023-05-10T09:15:15;4.57;;;2.10;;
74551;SDS011;63025;55.472;38.432;2023-05-10T09:17:42;3.78;;;2.10;;
74551;SDS011;63025;55.472;38.432;2023-05-10T09:20:09;5.60;;;2.30;;
74551;SDS011;63025;55.472;38.432;2023-05-10T09:22:35;3.30;;;1.88;;
74551;SDS011;63025;55.472;38.432;2023-05-10T09:25:08;3.65;;;1.90;;
74551;SDS011;63025;55.472;38.432;2023-05-10T09:27:39;3.47;;;1.90;;
74551;SDS011;63025;55.472;38.432;2023-05-10T09:30:07;4.80;;;2.30;;
74551;SDS011;63025;55.472;38.432;2023-05-10T09:32:41;4.10;;;1.92;;
74551;SDS011;63025;55.472;38.432;2023-05-10T09:35:09;3.72;;;2.10;;
74551;SDS011;63025;55.472;38.432;2023-05-10T09:37:36;4.28;;;2.25;;
74551;SDS011;63025;55.472;38.432;2023-05-10T09:40:05;4.05;;;1.95;;
74551;SDS011;63025;55.472;38.432;2023-05-10T09:42:33;3.40;;;1.90;;
74551;SDS011;63025;55.472;38.432;2023-05-10T09:45:03;3.75;;;2.10;;
74551;SDS011;63025;55.472;38.432;2023-05-10T09:47:32;3.40;;;1.90;;
74551;SDS011;63025;55.472;38.432;2023-05-10T09:49:59;5.50;;;2.10;;
74551;SDS011;63025;55.472;38.432;2023-05-10T09:52:51;5.75;;;2.30;;
74551;SDS011;63025;55.472;38.432;2023-05-10T09:55:21;3.70;;;1.90;;
74551;SDS011;63025;55.472;38.432;2023-05-10T09:58:08;5.18;;;2.10;;
74551;SDS011;63025;55.472;38.432;2023-05-10T10:00:37;3.47;;;1.92;;
74551;SDS011;63025;55.472;38.432;2023-05-10T10:03:05;4.88;;;2.30;;
74551;SDS011;63025;55.472;38.432;2023-05-10T10:05:39;3.28;;;2.00;;
74551;SDS011;63025;55.472;38.432;2023-05-10T10:08:07;3.92;;;2.03;;
74551;SDS011;63025;55.472;38.432;2023-05-10T10:10:34;4.95;;;2.15;;
74551;SDS011;63025;55.472;38.432;2023-05-10T10:13:02;6.03;;;2.17;;
74551;SDS011;63025;55.472;38.432;2023-05-10T10:15:28;4.47;;;1.80;;
74551;SDS011;63025;55.472;38.432;2023-05-10T10:17:54;3.10;;;1.95;;
74551;SDS011;63025;55.472;38.432;2023-05-10T10:20:20;4.95;;;2.03;;
74551;SDS011;63025;55.472;38.432;2023-05-10T10:22:48;4.25;;;1.83;;
74551;SDS011;63025;55.472;38.432;2023-05-10T10:25:15;3.85;;;2.00;;
74551;SDS011;63025;55.472;38.432;2023-05-10T10:33:33;3.40;;;1.83;;
74551;SDS011;63025;55.472;38.432;2023-05-10T10:36:05;4.53;;;2.38;;
74551;SDS011;63025;55.472;38.432;2023-05-10T10:47:06;3.58;;;2.05;;
74551;SDS011;63025;55.472;38.432;2023-05-10T10:55:18;3.70;;;2.20;;
74551;SDS011;63025;55.472;38.432;2023-05-10T10:57:51;3.20;;;1.98;;
74551;SDS011;63025;55.472;38.432;2023-05-10T11:00:22;5.78;;;2.28;;
74551;SDS011;63025;55.472;38.432;2023-05-10T11:02:52;3.25;;;1.90;;
74551;SDS011;63025;55.472;38.432;2023-05-10T11:08:06;3.58;;;2.03;;
74551;SDS011;63025;55.472;38.432;2023-05-10T11:10:34;3.97;;;2.08;;
74551;SDS011;63025;55.472;38.432;2023-05-10T11:13:01;3.58;;;1.90;;
74551;SDS011;63025;55.472;38.432;2023-05-10T11:15:30;3.55;;;1.70;;
74551;SDS011;63025;55.472;38.432;2023-05-10T11:17:56;5.15;;;1.98;;
74551;SDS011;63025;55.472;38.432;2023-05-10T11:20:22;3.53;;;2.20;;
74551;SDS011;63025;55.472;38.432;2023-05-10T11:22:50;3.63;;;1.77;;
74551;SDS011;63025;55.472;38.432;2023-05-10T11:25:23;3.85;;;2.10;;
74551;SDS011;63025;55.472;38.432;2023-05-10T11:27:52;3.65;;;2.30;;
74551;SDS011;63025;55.472;38.432;2023-05-10T11:30:18;4.82;;;2.00;;
74551;SDS011;63025;55.472;38.432;2023-05-10T11:32:44;4.95;;;2.10;;
74551;SDS011;63025;55.472;38.432;2023-05-10T11:35:11;3.92;;;2.13;;
74551;SDS011;63025;55.472;38.432;2023-05-10T11:37:38;3.45;;;1.98;;
74551;SDS011;63025;55.472;38.432;2023-05-10T11:40:08;3.97;;;2.10;;
74551;SDS011;63025;55.472;38.432;2023-05-10T11:42:38;5.28;;;2.28;;
74551;SDS011;63025;55.472;38.432;2023-05-10T11:45:04;5.32;;;2.20;;
74551;SDS011;63025;55.472;38.432;2023-05-10T11:47:31;3.50;;;2.00;;
74551;SDS011;63025;55.472;38.432;2023-05-10T11:49:57;4.63;;;2.20;;
74551;SDS011;63025;55.472;38.432;2023-05-10T11:52:23;5.38;;;2.20;;
74551;SDS011;63025;55.472;38.432;2023-05-10T11:54:53;3.95;;;2.00;;
74551;SDS011;63025;55.472;38.432;2023-05-10T11:57:20;3.63;;;1.92;;
74551;SDS011;63025;55.472;38.432;2023-05-10T11:59:54;4.57;;;2.05;;
74551;SDS011;63025;55.472;38.432;2023-05-10T12:02:22;3.50;;;1.95;;
74551;SDS011;63025;55.472;38.432;2023-05-10T12:04:48;4.53;;;2.05;;
74551;SDS011;63025;55.472;38.432;2023-05-10T12:07:15;4.97;;;2.22;;
74551;SDS011;63025;55.472;38.432;2023-05-10T12:10:01;4.05;;;1.90;;
74551;SDS011;63025;55.472;38.432;2023-05-10T12:12:39;5.72;;;2.35;;
74551;SDS011;63025;55.472;38.432;2023-05-10T12:15:20;4.65;;;2.08;;
74551;SDS011;63025;55.472;38.432;2023-05-10T12:17:47;4.18;;;1.90;;
74551;SDS011;63025;55.472;38.432;2023-05-10T12:20:17;6.53;;;2.58;;
74551;SDS011;63025;55.472;38.432;2023-05-10T12:22:49;4.70;;;2.22;;
74551;SDS011;63025;55.472;38.432;2023-05-10T12:25:16;5.43;;;2.10;;
74551;SDS011;63025;55.472;38.432;2023-05-10T12:27:55;3.60;;;1.83;;
74551;SDS011;63025;55.472;38.432;2023-05-10T12:30:27;4.00;;;2.20;;
74551;SDS011;63025;55.472;38.432;2023-05-10T12:32:59;3.92;;;2.15;;
74551;SDS011;63025;55.472;38.432;2023-05-10T12:35:33;5.68;;;2.45;;
74551;SDS011;63025;55.472;38.432;2023-05-10T12:38:28;6.53;;;2.85;;
74551;SDS011;63025;55.472;38.432;2023-05-10T12:41:03;3.90;;;2.40;;
74551;SDS011;63025;55.472;38.432;2023-05-10T12:43:30;6.65;;;2.70;;
74551;SDS011;63025;55.472;38.432;2023-05-10T12:45:57;6.63;;;3.55;;
74551;SDS011;63025;55.472;38.432;2023-05-10T12:48:23;8.23;;;5.38;;
74551;SDS011;63025;55.472;38.432;2023-05-10T12:50:49;9.35;;;3.70;;
74551;SDS011;63025;55.472;38.432;2023-05-10T12:53:16;5.22;;;2.90;;
74551;SDS011;63025;55.472;38.432;2023-05-10T12:55:42;6.18;;;2.38;;
74551;SDS011;63025;55.472;38.432;2023-05-10T12:58:09;3.72;;;2.20;;
74551;SDS011;63025;55.472;38.432;2023-05-10T13:00:35;4.28;;;2.20;;
74551;SDS011;63025;55.472;38.432;2023-05-10T13:03:04;3.97;;;1.92;;
74551;SDS011;63025;55.472;38.432;2023-05-10T13:05:33;7.10;;;2.50;;
74551;SDS011;63025;55.472;38.432;2023-05-10T13:07:59;4.70;;;2.40;;
74551;SDS011;63025;55.472;38.432;2023-05-10T13:10:25;5.60;;;2.10;;
74551;SDS011;63025;55.472;38.432;2023-05-10T13:12:51;3.72;;;2.53;;
74551;SDS011;63025;55.472;38.432;2023-05-10T13:15:17;5.07;;;2.20;;
74551;SDS011;63025;55.472;38.432;2023-05-10T13:17:43;6.38;;;2.30;;
74551;SDS011;63025;55.472;38.432;2023-05-10T13:20:10;3.97;;;2.00;;
74551;SDS011;63025;55.472;38.432;2023-05-10T13:22:36;5.63;;;2.00;;
74551;SDS011;63025;55.472;38.432;2023-05-10T13:25:02;4.50;;;2.13;;
74551;SDS011;63025;55.472;38.432;2023-05-10T13:27:29;4.78;;;2.22;;
74551;SDS011;63025;55.472;38.432;2023-05-10T13:29:55;4.93;;;2.20;;
74551;SDS011;63025;55.472;38.432;2023-05-10T13:32:21;5.18;;;2.17;;
74551;SDS011;63025;55.472;38.432;2023-05-10T13:34:47;3.78;;;2.17;;
74551;SDS011;63025;55.472;38.432;2023-05-10T13:37:13;4.80;;;1.98;;
74551;SDS011;63025;55.472;38.432;2023-05-10T13:39:39;4.57;;;2.00;;
74551;SDS011;63025;55.472;38.432;2023-05-10T13:42:04;2.95;;;1.75;;
74551;SDS011;63025;55.472;38.432;2023-05-10T13:44:30;6.25;;;2.30;;
74551;SDS011;63025;55.472;38.432;2023-05-10T13:46:59;4.43;;;2.13;;
74551;SDS011;63025;55.472;38.432;2023-05-10T13:49:25;3.70;;;1.90;;
74551;SDS011;63025;55.472;38.432;2023-05-10T13:51:50;4.07;;;2.05;;
74551;SDS011;63025;55.472;38.432;2023-05-10T13:54:17;4.22;;;2.30;;
74551;SDS011;63025;55.472;38.432;2023-05-10T13:56:45;4.03;;;2.20;;
74551;SDS011;63025;55.472;38.432;2023-05-10T13:59:12;4.45;;;2.50;;
74551;SDS011;63025;55.472;38.432;2023-05-10T14:01:42;4.13;;;2.30;;
74551;SDS011;63025;55.472;38.432;2023-05-10T14:04:09;4.22;;;2.13;;
74551;SDS011;63025;55.472;38.432;2023-05-10T14:06:36;3.22;;;1.90;;
74551;SDS011;63025;55.472;38.432;2023-05-10T14:09:02;4.47;;;1.95;;
74551;SDS011;63025;55.472;38.432;2023-05-10T14:11:28;4.85;;;2.03;;
74551;SDS011;63025;55.472;38.432;2023-05-10T14:13:54;3.30;;;2.10;;
74551;SDS011;63025;55.472;38.432;2023-05-10T14:16:20;4.63;;;2.50;;
74551;SDS011;63025;55.472;38.432;2023-05-10T14:18:47;4.85;;;2.15;;
74551;SDS011;63025;55.472;38.432;2023-05-10T14:21:13;5.75;;;2.60;;
74551;SDS011;63025;55.472;38.432;2023-05-10T14:23:38;8.18;;;4.50;;
74551;SDS011;63025;55.472;38.432;2023-05-10T14:26:04;30.08;;;18.92;;
74551;SDS011;63025;55.472;38.432;2023-05-10T14:28:30;11.38;;;5.63;;
74551;SDS011;63025;55.472;38.432;2023-05-10T14:30:56;10.43;;;6.03;;
74551;SDS011;63025;55.472;38.432;2023-05-10T14:33:23;11.10;;;6.72;;
74551;SDS011;63025;55.472;38.432;2023-05-10T14:35:49;7.53;;;4.20;;
74551;SDS011;63025;55.472;38.432;2023-05-10T14:38:15;7.25;;;4.40;;
74551;SDS011;63025;55.472;38.432;2023-05-10T14:40:41;5.35;;;2.45;;
74551;SDS011;63025;55.472;38.432;2023-05-10T14:43:08;5.90;;;3.50;;
74551;SDS011;63025;55.472;38.432;2023-05-10T14:45:34;5.70;;;3.40;;
74551;SDS011;63025;55.472;38.432;2023-05-10T14:48:00;5.75;;;2.72;;
74551;SDS011;63025;55.472;38.432;2023-05-10T14:50:30;4.70;;;2.33;;
74551;SDS011;63025;55.472;38.432;2023-05-10T14:52:57;8.70;;;2.45;;
74551;SDS011;63025;55.472;38.432;2023-05-10T14:55:24;9.02;;;2.58;;
74551;SDS011;63025;55.472;38.432;2023-05-10T14:57:50;5.63;;;2.05;;
74551;SDS011;63025;55.472;38.432;2023-05-10T15:00:16;5.05;;;2.25;;
74551;SDS011;63025;55.472;38.432;2023-05-10T15:02:43;6.35;;;2.35;;
74551;SDS011;63025;55.472;38.432;2023-05-10T15:05:09;5.72;;;2.10;;
74551;SDS011;63025;55.472;38.432;2023-05-10T15:07:35;4.47;;;2.08;;